Hier das METAR für die 16 wichtigsten Deutschen Flughäfen.
(dauert ein wenig.... ich muss laden.....)

ODER
METAR nach ICAO Code suchen

Berlin - Schönefeld

EDDB

METAR
EDDB 250920Z 08007KT 8000 -RA FEW009 BKN011 14/13 Q1022 TEMPO BKN008
EDDBMETAR lang
Berlin-Schoenefeld, Germany (EDDB) 52-23N 013-31E 50M
Sep 25, 2017 - 05:20 AM EDT / 2017.09.25 0920 UTC
Wind: from the E (080 degrees) at 8 MPH (7 KT):0
Visibility: 4 mile(s):0
Sky conditions: mostly cloudy
Weather: light rain
Temperature: 57 F (14 C)
Dew Point: 55 F (13 C)
Relative Humidity: 93%
Pressure (altimeter): 30.18 in. Hg (1022 hPa)
ob: EDDB 250920Z 08007KT 8000 -RA FEW009 BKN011 14/13 Q1022 TEMPO BKN008
cycle: 9

Dresden

EDDC

METAR
EDDC 250920Z 06004KT 030V090 7000 SCT004 BKN018 BKN050 13/12 Q1021 TEMPO BKN008
EDDCMETAR lang
Dresden-Klotzsche, Germany (EDDC) 51-08N 013-45E 232M
Sep 25, 2017 - 05:20 AM EDT / 2017.09.25 0920 UTC
Wind: from the ENE (060 degrees) at 5 MPH (4 KT) (direction variable):0
Visibility: 4 mile(s):0
Sky conditions: mostly cloudy
Temperature: 55 F (13 C)
Dew Point: 53 F (12 C)
Relative Humidity: 93%
Pressure (altimeter): 30.15 in. Hg (1021 hPa)
ob: EDDC 250920Z 06004KT 030V090 7000 SCT004 BKN018 BKN050 13/12 Q1021 TEMPO BKN008
cycle: 9

Erfurt

EDDE

METAR
EDDE 250920Z 05003KT 9999 SCT008 BKN011 12/11 Q1022 TEMPO BKN006
EDDEMETAR lang
Erfurt-Bindersleben, Germany (EDDE) 50-59N 010-58E 322M
Sep 25, 2017 - 05:20 AM EDT / 2017.09.25 0920 UTC
Wind: from the NE (050 degrees) at 3 MPH (3 KT):0
Visibility: greater than 7 mile(s):0
Sky conditions: mostly cloudy
Temperature: 53 F (12 C)
Dew Point: 51 F (11 C)
Relative Humidity: 93%
Pressure (altimeter): 30.18 in. Hg (1022 hPa)
ob: EDDE 250920Z 05003KT 9999 SCT008 BKN011 12/11 Q1022 TEMPO BKN006
cycle: 9

Frankfurt a. Main

EDDF

METAR
EDDF 250920Z VRB05KT 9999 FEW016 BKN060 17/11 Q1021 NOSIG
EDDFMETAR lang
Frankfurt / M-Flughafen, Germany (EDDF) 50-03N 008-36E 113M
Sep 25, 2017 - 05:20 AM EDT / 2017.09.25 0920 UTC
Wind: Variable at 6 MPH (5 KT):0
Visibility: greater than 7 mile(s):0
Sky conditions: mostly cloudy
Temperature: 62 F (17 C)
Dew Point: 51 F (11 C)
Relative Humidity: 67%
Pressure (altimeter): 30.15 in. Hg (1021 hPa)
ob: EDDF 250920Z VRB05KT 9999 FEW016 BKN060 17/11 Q1021 NOSIG
cycle: 9

Münster Osnabrück

EDDG

METAR
EDDG 250920Z 05004KT 360V170 7000 FEW014 BKN016 16/13 Q1022 NOSIG
EDDGMETAR lang
Muenster / Osnabrueck, Germany (EDDG) 52-08N 007-42E 53M
Sep 25, 2017 - 05:20 AM EDT / 2017.09.25 0920 UTC
Wind: from the NE (050 degrees) at 5 MPH (4 KT) (direction variable):0
Visibility: 4 mile(s):0
Sky conditions: mostly cloudy
Temperature: 60 F (16 C)
Dew Point: 55 F (13 C)
Relative Humidity: 82%
Pressure (altimeter): 30.18 in. Hg (1022 hPa)
ob: EDDG 250920Z 05004KT 360V170 7000 FEW014 BKN016 16/13 Q1022 NOSIG
cycle: 9

Hamburg

EDDH

METAR
EDDH 250920Z 07007KT 040V100 9999 BKN012 16/14 Q1023 TEMPO BKN008
EDDHMETAR lang
Hamburg-Fuhlsbuettel, Germany (EDDH) 53-38N 010-00E 15M
Sep 25, 2017 - 05:20 AM EDT / 2017.09.25 0920 UTC
Wind: from the ENE (070 degrees) at 8 MPH (7 KT) (direction variable):0
Visibility: greater than 7 mile(s):0
Sky conditions: mostly cloudy
Temperature: 60 F (16 C)
Dew Point: 57 F (14 C)
Relative Humidity: 87%
Pressure (altimeter): 30.21 in. Hg (1023 hPa)
ob: EDDH 250920Z 07007KT 040V100 9999 BKN012 16/14 Q1023 TEMPO BKN008
cycle: 9

Köln - Bonn

EDDK

METAR
EDDK 250920Z 13003KT 080V170 9999 FEW007 BKN045 14/12 Q1021 NOSIG
EDDKMETAR lang
Koeln / Bonn, Germany (EDDK) 50-52N 007-10E 100M
Sep 25, 2017 - 05:20 AM EDT / 2017.09.25 0920 UTC
Wind: from the SE (130 degrees) at 3 MPH (3 KT) (direction variable):0
Visibility: greater than 7 mile(s):0
Sky conditions: mostly cloudy
Temperature: 57 F (14 C)
Dew Point: 53 F (12 C)
Relative Humidity: 87%
Pressure (altimeter): 30.15 in. Hg (1021 hPa)
ob: EDDK 250920Z 13003KT 080V170 9999 FEW007 BKN045 14/12 Q1021 NOSIG
cycle: 9

Düsseldorf

EDDL

METAR
EDDL 250920Z 01003KT 340V060 9999 BKN045 16/12 Q1021 NOSIG
EDDLMETAR lang
Duesseldorf, Germany (EDDL) 51-18N 006-46E 41M
Sep 25, 2017 - 05:20 AM EDT / 2017.09.25 0920 UTC
Wind: from the N (010 degrees) at 3 MPH (3 KT) (direction variable):0
Visibility: greater than 7 mile(s):0
Sky conditions: mostly cloudy
Temperature: 60 F (16 C)
Dew Point: 53 F (12 C)
Relative Humidity: 77%
Pressure (altimeter): 30.15 in. Hg (1021 hPa)
ob: EDDL 250920Z 01003KT 340V060 9999 BKN045 16/12 Q1021 NOSIG
cycle: 9

München

EDDM

METAR
EDDM 250920Z 07003KT 350V160 9999 FEW004 SCT230 12/10 Q1020 NOSIG
EDDMMETAR lang
Munchen, Germany (EDDM) 48-21N 011-47E
Sep 25, 2017 - 05:20 AM EDT / 2017.09.25 0920 UTC
Wind: from the ENE (070 degrees) at 3 MPH (3 KT) (direction variable):0
Visibility: greater than 7 mile(s):0
Sky conditions: partly cloudy
Temperature: 53 F (12 C)
Dew Point: 50 F (10 C)
Relative Humidity: 87%
Pressure (altimeter): 30.12 in. Hg (1020 hPa)
ob: EDDM 250920Z 07003KT 350V160 9999 FEW004 SCT230 12/10 Q1020 NOSIG
cycle: 9

Nürnberg

EDDN

METAR
EDDN 250920Z VRB02KT 9999 FEW045 SCT100 12/10 Q1021 NOSIG
EDDNMETAR lang
Nuernberg, Germany (EDDN) 49-30N 011-03E 318M
Sep 25, 2017 - 05:20 AM EDT / 2017.09.25 0920 UTC
Wind: Variable at 2 MPH (2 KT):0
Visibility: greater than 7 mile(s):0
Sky conditions: partly cloudy
Temperature: 53 F (12 C)
Dew Point: 50 F (10 C)
Relative Humidity: 87%
Pressure (altimeter): 30.15 in. Hg (1021 hPa)
ob: EDDN 250920Z VRB02KT 9999 FEW045 SCT100 12/10 Q1021 NOSIG
cycle: 9

Leipzig - Halle

EDDP

METAR
EDDP 250920Z 04006KT 2400 -RA BR BKN002 13/13 Q1021 RERA BECMG 3000 -RA BKN005
EDDPMETAR lang
Leipzig-Schkeuditz, Germany (EDDP) 51-25N 012-14E 149M
Sep 25, 2017 - 05:20 AM EDT / 2017.09.25 0920 UTC
Wind: from the NE (040 degrees) at 7 MPH (6 KT):0
Visibility: 1 mile(s):0
Sky conditions: mostly cloudy
Weather: light rain; mist
Temperature: 55 F (13 C)
Dew Point: 55 F (13 C)
Relative Humidity: 100%
Pressure (altimeter): 30.15 in. Hg (1021 hPa)
ob: EDDP 250920Z 04006KT 2400 -RA BR BKN002 13/13 Q1021 RERA BECMG 3000 -RA BKN005
cycle: 9

Saarbrücken

EDDR

METAR
EDDR 250920Z 04006KT 360V070 9999 FEW004 12/10 Q1020 NOSIG
EDDRMETAR lang
Saarbruecken / Ensheim, Germany (EDDR) 49-13N 007-07E 320M
Sep 25, 2017 - 05:20 AM EDT / 2017.09.25 0920 UTC
Wind: from the NE (040 degrees) at 7 MPH (6 KT) (direction variable):0
Visibility: greater than 7 mile(s):0
Sky conditions: mostly clear
Temperature: 53 F (12 C)
Dew Point: 50 F (10 C)
Relative Humidity: 87%
Pressure (altimeter): 30.12 in. Hg (1020 hPa)
ob: EDDR 250920Z 04006KT 360V070 9999 FEW004 12/10 Q1020 NOSIG
cycle: 9

Stuttgart

EDDS

METAR
EDDS 250920Z VRB02KT 9999 VCFG FEW003 12/11 Q1020 NOSIG
EDDSMETAR lang
Stuttgart-Echterdingen, Germany (EDDS) 48-41N 009-13E 391M
Sep 25, 2017 - 05:20 AM EDT / 2017.09.25 0920 UTC
Wind: Variable at 2 MPH (2 KT):0
Visibility: greater than 7 mile(s):0
Sky conditions: mostly clear
Weather: fog in the vicinity
Temperature: 53 F (12 C)
Dew Point: 51 F (11 C)
Relative Humidity: 93%
Pressure (altimeter): 30.12 in. Hg (1020 hPa)
ob: EDDS 250920Z VRB02KT 9999 VCFG FEW003 12/11 Q1020 NOSIG
cycle: 9

Berlin - Tegel

EDDT

METAR
EDDT 250920Z 08007KT 030V130 9999 -RA BKN009 OVC010 14/12 Q1022 BECMG BKN010
EDDTMETAR lang
Berlin-Tegel, Germany (EDDT) 52-34N 013-19E 37M
Sep 25, 2017 - 05:20 AM EDT / 2017.09.25 0920 UTC
Wind: from the E (080 degrees) at 8 MPH (7 KT) (direction variable):0
Visibility: greater than 7 mile(s):0
Sky conditions: overcast
Weather: light rain
Temperature: 57 F (14 C)
Dew Point: 53 F (12 C)
Relative Humidity: 87%
Pressure (altimeter): 30.18 in. Hg (1022 hPa)
ob: EDDT 250920Z 08007KT 030V130 9999 -RA BKN009 OVC010 14/12 Q1022 BECMG BKN010
cycle: 9

Hannover

EDDV

METAR
EDDV 250920Z 07005KT 7000 -RA BKN008 15/13 Q1023 BECMG BKN010
EDDVMETAR lang
Hannover, Germany (EDDV) 52-28N 009-41E 59M
Sep 25, 2017 - 05:20 AM EDT / 2017.09.25 0920 UTC
Wind: from the ENE (070 degrees) at 6 MPH (5 KT):0
Visibility: 4 mile(s):0
Sky conditions: mostly cloudy
Weather: light rain
Temperature: 59 F (15 C)
Dew Point: 55 F (13 C)
Relative Humidity: 87%
Pressure (altimeter): 30.21 in. Hg (1023 hPa)
ob: EDDV 250920Z 07005KT 7000 -RA BKN008 15/13 Q1023 BECMG BKN010
cycle: 9

Bremen

EDDW

METAR
EDDW 250920Z 06009KT 9999 SCT008 BKN018 15/14 Q1023 TEMPO BKN008
EDDWMETAR lang
Bremen, Germany (EDDW) 53-03N 008-48E 5M
Sep 25, 2017 - 05:20 AM EDT / 2017.09.25 0920 UTC
Wind: from the ENE (060 degrees) at 10 MPH (9 KT):0
Visibility: greater than 7 mile(s):0
Sky conditions: mostly cloudy
Temperature: 59 F (15 C)
Dew Point: 57 F (14 C)
Relative Humidity: 93%
Pressure (altimeter): 30.21 in. Hg (1023 hPa)
ob: EDDW 250920Z 06009KT 9999 SCT008 BKN018 15/14 Q1023 TEMPO BKN008
cycle: 9